Montoursville, Pennsylvania
Current Conditions -  °F | °C
As of 8:54 PM on Monday 20 Oct 2014 (Local Time) from KIPT Reporting Station
Overcast Overcast  
Wind Chill: 13°   Ceiling: 11000
Heat Index: 13°   Visibility: 10mi
Dew Point:   Wind: 0mph
Humidity: 51%   Direction: NA
Pressure: 29.91"   Gusts: NA
Location:  41.25°N, 76.92°W
Report Text: KIPT 210054Z 00000KT 10SM FEW065 FEW090 OVC110 13/03 A2991 RMK AO2 SLP128 T01330033
Loading
Personal Weather Stations






























Interactive Weather Map
Tropical Storm Tracking
New forecast layout! Learn more

10-Day Weather Forecast

Advertisements
Track Severe Weather on mobile